Time;durP1;ratioP1;P1;durP2;ratioP2;P2;SDS_P1;SDS_P2;PMS_P1;PMS_P2;Temp;Humidity;BMP_temperature;BMP_pressure;BME280_temperature;BME280_humidity;BME280_pressure;Samples;Min_cycle;Max_cycle;Signal;HPM_P1;HPM_P2
2021/05/20 00:00:58;;;;;;;38.28;32.28;;;12.80;99.90;;;13.24;80.60;101913.03;5093824;28;20056;-70
2021/05/20 00:03:25;;;;;;;35.97;31.17;;;12.90;99.90;;;13.26;80.33;101921.91;5093867;28;20044;-71
2021/05/20 00:05:53;;;;;;;38.08;31.58;;;12.90;99.90;;;13.44;79.86;101921.94;5076196;28;20055;-71
2021/05/20 00:08:21;;;;;;;37.28;31.13;;;13.00;99.90;;;13.27;80.81;101926.34;5094064;28;20059;-71
2021/05/20 00:10:50;;;;;;;37.78;32.00;;;12.90;99.90;;;13.33;80.36;101920.16;5075813;28;20071;-71
2021/05/20 00:13:19;;;;;;;37.00;32.10;;;13.00;99.90;;;13.36;80.21;101930.78;5093587;28;20051;-71
2021/05/20 00:15:46;;;;;;;38.90;32.78;;;12.90;99.90;;;13.35;79.44;101932.56;5093358;28;20105;-71
2021/05/20 00:18:14;;;;;;;38.70;32.50;;;12.90;99.90;;;13.16;79.67;101920.09;5093897;28;20052;-71
2021/05/20 00:20:42;;;;;;;27.70;23.90;;;12.80;99.90;;;13.28;79.31;101929.88;5093850;28;20055;-71
2021/05/20 00:23:10;;;;;;;21.88;18.58;;;12.90;99.90;;;13.01;77.72;101935.09;5075912;28;20052;-71
2021/05/20 00:25:38;;;;;;;20.45;18.45;;;12.70;99.90;;;12.92;77.77;101933.31;5093690;28;20044;-71
2021/05/20 00:28:06;;;;;;;21.15;18.98;;;12.60;99.90;;;12.76;78.37;101917.31;5093777;28;20093;-71
2021/05/20 00:30:35;;;;;;;18.60;15.93;;;12.50;99.90;;;12.88;78.71;101936.84;5075469;28;20055;-71
2021/05/20 00:33:03;;;;;;;21.27;18.98;;;12.50;99.90;;;12.83;78.32;101935.06;5075325;28;20397;-71
2021/05/20 00:35:31;;;;;;;25.08;22.38;;;12.50;99.90;;;12.85;78.28;101939.50;5093680;28;20036;-71
2021/05/20 00:37:59;;;;;;;20.70;17.35;;;12.40;99.90;;;12.78;77.89;101943.00;5093585;28;20113;-71
2021/05/20 00:40:27;;;;;;;18.75;16.75;;;12.40;99.90;;;12.76;77.23;101942.09;5093523;28;20052;-71
2021/05/20 00:42:55;;;;;;;15.30;13.85;;;12.40;99.90;;;12.68;76.45;101946.47;5093514;28;20052;-71
2021/05/20 00:45:24;;;;;;;13.38;12.10;;;12.30;99.90;;;12.56;76.08;101942.00;5093123;28;20132;-71
2021/05/20 00:47:53;;;;;;;15.88;14.15;;;12.30;99.90;;;12.45;76.21;101940.19;5093108;28;20051;-71
2021/05/20 00:50:21;;;;;;;13.65;12.25;;;12.10;99.90;;;12.35;76.26;101933.94;5093358;28;20052;-70
2021/05/20 00:52:49;;;;;;;12.63;11.52;;;12.10;99.90;;;12.47;76.68;101951.69;5093325;28;20052;-71
2021/05/20 00:55:19;;;;;;;21.08;10.90;;;12.10;99.90;;;12.43;76.97;101947.25;5075032;28;20052;-71
2021/05/20 00:57:48;;;;;;;11.48;10.40;;;12.00;99.90;;;12.37;77.56;101945.44;5074880;28;20059;-71
2021/05/20 01:00:18;;;;;;;12.82;11.60;;;12.00;99.90;;;12.35;77.68;101951.66;5093299;28;20047;-71
2021/05/20 01:02:46;;;;;;;9.07;8.38;;;12.00;99.90;;;12.25;77.24;101955.13;5093330;28;20052;-71
2021/05/20 01:05:15;;;;;;;18.42;7.93;;;11.90;99.90;;;11.93;76.70;101951.34;5075077;28;20482;-71
2021/05/20 01:07:43;;;;;;;12.23;11.02;;;11.60;99.90;;;11.95;76.72;101966.41;5093135;28;20047;-70
2021/05/20 01:10:12;;;;;;;10.60;9.60;;;11.60;99.90;;;11.92;77.39;101962.84;5093127;28;20101;-71
2021/05/20 01:12:40;;;;;;;46.67;10.02;;;11.50;99.90;;;11.63;77.76;101920.16;5092721;28;20501;-70
2021/05/20 01:15:23;;;;;;;15.38;11.05;;;11.50;99.90;;;11.70;78.19;101954.72;5093055;28;20090;-71
2021/05/20 01:17:53;;;;;;;71.78;10.48;;;11.30;99.90;;;11.25;76.91;101948.94;5093082;28;20485;-71
2021/05/20 01:20:24;;;;;;;65.75;9.73;;;11.00;99.90;;;10.82;77.10;101949.34;5093099;28;20432;-70
2021/05/20 01:22:52;;;;;;;12.63;11.55;;;10.50;99.90;;;10.98;78.54;101955.69;5093330;28;20051;-71
2021/05/20 01:25:20;;;;;;;15.75;12.90;;;10.60;99.90;;;11.14;78.82;101955.91;5093000;28;20036;-71
2021/05/20 01:27:50;;;;;;;13.45;11.95;;;10.70;99.90;;;11.24;79.16;101951.59;5097472;28;20075;-70
2021/05/20 01:30:18;;;;;;;66.82;13.85;;;10.80;99.90;;;11.23;79.54;101958.63;5096752;28;20047;-73
2021/05/20 01:32:46;;;;;;;16.13;14.63;;;10.90;99.90;;;11.32;79.96;101964.06;5096762;28;20078;-71
2021/05/20 01:35:14;;;;;;;15.55;13.98;;;10.90;99.90;;;11.28;79.63;101958.69;5078931;28;20060;-71
2021/05/20 01:37:43;;;;;;;16.00;14.50;;;11.00;99.90;;;11.27;78.94;101956.91;5096998;28;20118;-71
2021/05/20 01:40:13;;;;;;;14.13;12.45;;;11.00;99.90;;;11.32;78.45;101957.84;5096669;28;20382;-71
2021/05/20 01:42:41;;;;;;;15.13;13.57;;;11.00;99.90;;;11.47;78.35;101956.25;5096875;28;20056;-71
2021/05/20 01:45:10;;;;;;;14.93;13.63;;;11.20;99.90;;;11.40;78.26;101969.44;5096859;28;20047;-71
2021/05/20 01:47:39;;;;;;;15.07;13.77;;;11.10;99.90;;;11.39;77.81;101959.69;5078568;28;20052;-71
2021/05/20 01:50:07;;;;;;;21.08;19.08;;;11.10;99.90;;;11.35;78.11;101963.16;5096753;28;20098;-71
2021/05/20 01:52:35;;;;;;;19.55;17.60;;;11.10;99.90;;;11.38;78.18;101964.09;5096586;28;20040;-71
2021/05/20 01:55:06;;;;;;;20.77;18.70;;;11.10;99.90;;;11.41;78.43;101964.13;5096742;28;20051;-71
2021/05/20 01:57:34;;;;;;;23.05;20.85;;;11.10;99.90;;;11.51;78.52;101957.16;5096867;28;20179;-70
2021/05/20 02:00:03;;;;;;;23.63;18.55;;;11.20;99.90;;;11.51;78.73;101947.44;5096613;28;20093;-70
2021/05/20 02:02:31;;;;;;;18.23;16.42;;;11.20;99.90;;;11.50;78.79;101950.97;5096611;28;20051;-71
2021/05/20 02:04:59;;;;;;;18.48;16.75;;;11.20;99.90;;;11.49;78.60;101958.91;5096421;28;20043;-71
2021/05/20 02:07:27;;;;;;;17.80;16.10;;;11.10;99.90;;;11.48;78.46;101958.00;5096411;28;20052;-71
2021/05/20 02:09:55;;;;;;;15.90;14.30;;;11.10;99.90;;;11.51;78.29;101967.75;5096425;28;20097;-70
2021/05/20 02:12:23;;;;;;;16.17;14.60;;;11.20;99.90;;;11.49;77.99;101959.81;5096300;28;20109;-71
2021/05/20 02:14:52;;;;;;;36.28;12.73;;;11.10;99.90;;;11.26;78.89;101960.44;5096339;28;20048;-71
2021/05/20 02:17:20;;;;;;;70.60;12.88;;;10.90;99.90;;;10.80;79.81;101954.63;5078116;28;20059;-71
2021/05/20 02:19:48;;;;;;;24.80;12.05;;;10.60;99.90;;;10.42;80.40;101947.06;5096469;28;20044;-71
2021/05/20 02:22:16;;;;;;;64.45;14.52;;;10.20;99.90;;;10.45;80.15;101944.47;5096183;28;20052;-71
2021/05/20 02:24:44;;;;;;;20.77;15.48;;;10.10;99.90;;;10.50;80.31;101953.34;5096131;28;20044;-71
2021/05/20 02:27:11;;;;;;;20.13;15.65;;;10.10;99.90;;;10.55;80.34;101951.69;5096259;28;20097;-71
2021/05/20 02:29:40;;;;;;;17.60;15.73;;;10.10;99.90;;;10.65;80.43;101946.50;5095717;28;20481;-70
2021/05/20 02:32:08;;;;;;;18.80;17.10;;;10.30;99.90;;;10.60;80.58;101934.09;5096012;28;20044;-70
2021/05/20 02:34:36;;;;;;;20.90;18.98;;;10.40;99.90;;;10.80;80.23;101956.41;5095867;28;20076;-71
2021/05/20 02:37:04;;;;;;;21.73;19.52;;;10.50;99.90;;;10.78;79.66;101955.50;5094885;28;20044;-70
2021/05/20 02:39:32;;;;;;;21.05;19.00;;;10.50;99.90;;;10.85;80.10;101957.34;5095518;28;20044;-71
2021/05/20 02:42:00;;;;;;;23.95;18.98;;;10.50;99.90;;;11.00;80.12;101956.59;5096018;28;20044;-71
2021/05/20 02:44:29;;;;;;;44.08;19.67;;;10.60;99.90;;;11.03;80.44;101946.06;5095737;28;20048;-71
2021/05/20 02:46:57;;;;;;;19.88;17.52;;;10.70;99.90;;;11.17;80.38;101955.06;5095711;28;20055;-71
2021/05/20 02:49:25;;;;;;;35.17;20.25;;;10.80;99.90;;;11.14;80.08;101945.31;5095849;28;20079;-71
2021/05/20 02:51:53;;;;;;;30.83;26.83;;;10.80;99.90;;;11.11;79.80;101945.25;5095566;28;20048;-71
2021/05/20 02:54:21;;;;;;;26.88;24.17;;;10.80;99.90;;;11.15;79.73;101944.44;5095442;28;20048;-71
2021/05/20 02:56:49;;;;;;;24.45;21.98;;;10.90;99.90;;;11.22;79.19;101951.59;5095129;28;20055;-70
2021/05/20 02:59:17;;;;;;;23.15;20.92;;;10.90;99.90;;;11.28;78.91;101946.34;5095410;28;20393;-71
2021/05/20 03:01:47;;;;;;;23.95;21.60;;;11.00;99.90;;;11.28;78.55;101945.44;5095218;28;20059;-71
2021/05/20 03:04:16;;;;;;;27.80;24.90;;;11.00;99.90;;;11.27;78.00;101941.00;5095368;28;20138;-71
2021/05/20 03:06:44;;;;;;;25.95;23.38;;;11.00;99.90;;;11.27;77.88;101943.66;5095313;28;20055;-70
2021/05/20 03:09:12;;;;;;;26.00;23.30;;;11.00;99.90;;;11.26;77.49;101949.84;5095266;28;20461;-70
2021/05/20 03:11:40;;;;;;;24.95;22.25;;;11.00;99.90;;;11.16;77.65;101946.22;5095246;28;20055;-71
2021/05/20 03:14:08;;;;;;;22.60;20.20;;;10.90;99.90;;;11.06;78.10;101946.97;5094797;28;20440;-71
2021/05/20 03:16:36;;;;;;;22.92;20.63;;;10.70;99.90;;;11.00;78.43;101941.63;5094872;28;20043;-71
2021/05/20 03:19:04;;;;;;;19.90;17.80;;;10.80;99.90;;;10.96;78.51;101944.19;5095375;28;20101;-70
2021/05/20 03:21:33;;;;;;;20.65;18.55;;;10.60;99.90;;;10.95;78.42;101940.69;5094779;28;20397;-71
2021/05/20 03:24:01;;;;;;;29.70;18.08;;;10.60;99.90;;;10.97;79.01;101941.59;5077136;28;20040;-71
2021/05/20 03:26:29;;;;;;;21.55;18.88;;;10.60;99.90;;;10.98;79.29;101940.72;5094622;28;20056;-71
2021/05/20 03:28:57;;;;;;;26.25;23.55;;;10.60;99.90;;;11.11;78.81;101947.91;5094909;28;20044;-71
2021/05/20 03:31:25;;;;;;;30.73;27.35;;;10.70;99.90;;;11.21;78.57;101947.13;5094861;28;20052;-71
2021/05/20 03:33:53;;;;;;;31.38;27.83;;;10.80;99.90;;;11.24;78.51;101941.00;5076531;28;20094;-71
2021/05/20 03:36:21;;;;;;;212.20;32.20;;;10.90;99.90;;;11.28;78.98;101942.81;5094768;28;20071;-70
2021/05/20 03:38:50;;;;;;;34.55;30.75;;;10.90;99.90;;;11.40;79.25;101943.78;5094572;28;20048;-71
2021/05/20 03:41:18;;;;;;;35.08;31.42;;;11.00;99.90;;;11.41;79.59;101945.59;5094565;28;20435;-71
2021/05/20 03:43:46;;;;;;;32.30;28.80;;;11.10;99.90;;;11.48;79.12;101935.91;5094516;28;20075;-71
2021/05/20 03:46:29;;;;;;;30.63;27.33;;;11.20;99.90;;;11.36;78.68;101919.94;5094614;28;20105;-71
2021/05/20 03:48:57;;;;;;;28.45;25.55;;;11.20;99.90;;;11.51;78.39;101951.84;5094019;28;20044;-72
2021/05/20 03:51:35;;;;;;;25.30;22.60;;;11.20;99.90;;;11.50;78.49;101950.97;5094486;28;20052;-72
2021/05/20 03:54:06;;;;;;;27.25;24.45;;;11.20;99.90;;;11.46;77.91;101943.84;5094361;28;20048;-71
2021/05/20 03:56:34;;;;;;;24.83;22.30;;;11.20;99.90;;;11.42;77.88;101946.50;5094176;28;20074;-71
2021/05/20 03:59:02;;;;;;;24.83;22.42;;;11.20;99.90;;;11.47;77.88;101950.94;5094256;28;20044;-71
2021/05/20 04:01:31;;;;;;;23.58;21.27;;;11.20;99.90;;;11.49;77.80;101953.59;5093974;28;20098;-71
2021/05/20 04:03:59;;;;;;;23.35;21.05;;;11.20;99.90;;;11.48;77.72;101952.72;5094003;28;20101;-71
2021/05/20 04:06:27;;;;;;;22.80;20.70;;;11.20;99.90;;;11.49;77.77;101954.50;5094184;28;20048;-71
2021/05/20 04:08:54;;;;;;;23.27;20.98;;;11.20;99.90;;;11.36;77.89;101927.88;5094173;28;20073;-70
2021/05/20 04:11:25;;;;;;;24.98;22.45;;;11.20;99.90;;;11.49;77.87;101941.25;5093812;28;20048;-72
2021/05/20 04:13:53;;;;;;;24.17;21.77;;;11.20;99.90;;;11.46;77.83;101941.22;5094061;28;20040;-68
2021/05/20 04:16:24;;;;;;;24.75;22.15;;;11.20;99.90;;;11.42;78.54;101938.53;5093990;28;20065;-69
2021/05/20 04:18:52;;;;;;;32.08;19.40;;;11.10;99.90;;;11.06;78.82;101872.84;5094024;28;20044;-69
2021/05/20 04:21:20;;;;;;;39.35;21.63;;;11.10;99.90;;;11.46;79.00;101932.34;5093917;28;20456;-70
2021/05/20 04:23:49;;;;;;;25.42;22.80;;;11.10;99.90;;;11.54;79.64;101934.22;5075679;28;20138;-72
2021/05/20 04:26:19;;;;;;;45.53;20.65;;;11.20;99.90;;;11.63;79.47;101928.13;5093964;28;20048;-71
2021/05/20 04:28:48;;;;;;;19.65;17.67;;;11.30;99.90;;;11.51;79.25;101936.84;5093745;28;20523;-73
2021/05/20 04:31:17;;;;;;;20.52;18.50;;;11.20;99.90;;;11.53;79.42;101935.09;5093890;28;20439;-72
2021/05/20 04:33:45;;;;;;;20.52;18.52;;;11.20;99.90;;;11.57;79.31;101930.72;5093659;28;20044;-71
2021/05/20 04:36:13;;;;;;;83.40;18.13;;;11.30;99.90;;;11.56;79.51;101935.13;5093574;28;20040;-73
2021/05/20 04:38:41;;;;;;;33.80;17.00;;;11.20;99.90;;;11.48;79.46;101926.22;5093591;28;20105;-73
2021/05/20 04:41:09;;;;;;;30.30;17.73;;;11.20;99.90;;;11.38;79.85;101931.44;5075382;28;20097;-74
2021/05/20 04:43:38;;;;;;;20.25;17.50;;;11.10;99.90;;;11.39;79.89;101933.19;5093511;28;20055;-75
2021/05/20 04:46:06;;;;;;;25.08;19.10;;;11.10;99.90;;;11.49;80.04;101932.41;5093438;28;20123;-72
2021/05/20 04:48:34;;;;;;;28.17;18.63;;;11.20;99.90;;;11.55;80.03;101937.75;5093435;28;20052;-73
2021/05/20 04:51:02;;;;;;;20.50;18.52;;;11.20;99.90;;;11.51;79.66;101938.59;5093672;28;20054;-72
2021/05/20 04:53:30;;;;;;;22.27;16.48;;;11.10;99.90;;;11.46;79.40;101938.56;5093242;28;20081;-73
2021/05/20 04:55:59;;;;;;;17.95;16.17;;;11.10;99.90;;;11.51;79.27;101931.56;5093139;28;20554;-73
2021/05/20 04:58:27;;;;;;;20.40;18.45;;;11.20;99.90;;;11.61;79.50;101935.16;5093291;28;20063;-72
2021/05/20 05:00:55;;;;;;;20.05;17.77;;;11.20;99.90;;;11.71;79.85;101935.28;5092684;28;20047;-72
2021/05/20 05:03:23;;;;;;;23.33;17.63;;;11.30;99.90;;;12.01;80.14;101936.38;5093509;28;20060;-72
2021/05/20 05:05:53;;;;;;;19.60;17.80;;;11.50;99.90;;;12.16;79.53;101939.13;5092917;28;20040;-73
2021/05/20 05:08:21;;;;;;;20.38;18.50;;;11.80;99.90;;;12.27;79.05;101943.63;5093203;28;20127;-72
2021/05/20 05:10:49;;;;;;;20.15;18.23;;;11.90;99.90;;;12.37;78.39;101947.22;5075059;28;20040;-72
2021/05/20 05:13:19;;;;;;;22.05;19.95;;;12.00;99.90;;;12.47;78.21;101946.38;5092996;28;20040;-72
2021/05/20 05:15:47;;;;;;;22.50;20.30;;;12.10;99.90;;;12.63;78.30;101942.94;5093035;28;20058;-72
2021/05/20 05:18:15;;;;;;;28.58;25.58;;;12.30;99.90;;;12.77;78.34;101943.00;5092992;28;20044;-72
2021/05/20 05:20:44;;;;;;;22.10;20.00;;;12.40;99.90;;;12.92;78.72;101946.59;5074832;28;20489;-72
2021/05/20 05:23:12;;;;;;;23.02;20.88;;;12.60;99.90;;;13.14;78.15;101951.09;5092980;28;20067;-72
2021/05/20 05:25:42;;;;;;;22.58;20.35;;;12.80;99.90;;;13.25;78.32;101962.66;5093014;28;20500;-72
2021/05/20 05:28:10;;;;;;;24.42;21.98;;;12.90;99.90;;;13.37;77.89;101965.34;5092990;28;20051;-72
2021/05/20 05:30:38;;;;;;;28.05;25.15;;;13.10;99.90;;;13.46;77.65;101962.69;5092875;28;20048;-72
2021/05/20 05:33:06;;;;;;;32.65;28.95;;;13.20;99.90;;;13.62;77.68;101963.59;5092940;28;20040;-72
2021/05/20 05:35:34;;;;;;;40.53;33.85;;;13.30;99.90;;;13.68;77.52;101955.63;5074615;28;20485;-72
2021/05/20 05:38:03;;;;;;;40.03;35.03;;;13.50;99.90;;;13.67;77.44;101924.59;5092527;28;20040;-73
2021/05/20 05:40:31;;;;;;;42.90;36.97;;;13.60;99.90;;;13.99;77.25;101972.47;5074595;28;20059;-72
2021/05/20 05:42:59;;;;;;;43.15;38.47;;;13.70;99.90;;;14.12;76.89;101967.13;5092694;28;20048;-72
2021/05/20 05:45:27;;;;;;;42.97;38.17;;;13.80;99.90;;;14.24;77.20;101951.16;5092751;28;20052;-72
2021/05/20 05:47:55;;;;;;;42.53;37.35;;;14.00;99.90;;;14.41;77.07;101962.66;5092637;28;20110;-73
2021/05/20 05:50:23;;;;;;;45.13;40.20;;;14.20;99.90;;;14.56;76.93;101963.50;5092403;28;20040;-73
2021/05/20 05:52:51;;;;;;;48.05;41.22;;;14.30;99.90;;;14.69;77.00;101958.13;5092652;28;20101;-72
2021/05/20 05:55:20;;;;;;;46.60;40.75;;;14.40;99.90;;;14.78;76.59;101962.53;5092137;28;20442;-72
2021/05/20 05:57:47;;;;;;;46.40;40.65;;;14.50;99.90;;;14.92;76.29;101964.25;5092586;28;20052;-73
2021/05/20 06:00:17;;;;;;;47.38;40.28;;;14.60;99.90;;;15.11;76.21;101963.28;5092665;28;20044;-72
2021/05/20 06:02:46;;;;;;;46.90;40.30;;;14.80;99.90;;;15.24;75.71;101972.06;5092434;28;20098;-73
2021/05/20 06:05:14;;;;;;;43.15;37.90;;;14.90;99.90;;;15.32;75.19;101970.25;5092615;28;20043;-73
2021/05/20 06:07:43;;;;;;;43.97;37.38;;;15.00;99.90;;;15.37;74.84;101969.31;5092590;28;20069;-73
2021/05/20 06:10:12;;;;;;;42.67;37.78;;;15.10;99.90;;;15.53;74.75;101967.47;5092549;28;20046;-72
2021/05/20 06:12:41;;;;;;;43.08;37.55;;;15.30;99.90;;;15.67;74.76;101967.38;5094861;28;20033;-72
2021/05/20 06:15:10;;;;;;;41.95;37.45;;;15.30;99.90;;;15.77;74.21;101975.31;5096151;28;20047;-73
2021/05/20 06:17:39;;;;;;;40.78;36.28;;;15.50;99.90;;;15.87;73.93;101973.44;5096041;28;20074;-73
2021/05/20 06:20:09;;;;;;;40.67;35.03;;;15.50;99.90;;;16.01;73.50;101971.50;5096161;28;20056;-73
2021/05/20 06:22:37;;;;;;;38.22;34.17;;;15.70;99.90;;;16.06;73.24;101977.72;5096012;28;20072;-73
2021/05/20 06:25:07;;;;;;;35.25;31.45;;;15.70;99.90;;;16.07;72.39;101974.13;5096249;28;20044;-73
2021/05/20 06:27:35;;;;;;;38.05;32.95;;;15.80;99.90;;;16.05;72.40;101967.94;5095655;28;20051;-73
2021/05/20 06:30:07;;;;;;;32.13;28.63;;;15.80;99.90;;;16.11;71.80;101976.78;5096150;28;20047;-73
2021/05/20 06:32:36;;;;;;;31.50;28.15;;;15.80;99.90;;;16.14;71.42;101952.69;5096030;28;20050;-73
2021/05/20 06:35:05;;;;;;;29.75;26.63;;;15.90;99.90;;;16.33;70.42;101977.47;5095610;28;20048;-73
2021/05/20 06:37:33;;;;;;;29.80;26.15;;;16.00;99.90;;;16.40;69.87;101968.47;5077653;28;20048;-73
2021/05/20 06:40:02;;;;;;;27.92;24.98;;;16.10;99.90;;;16.47;69.63;101972.88;5096219;28;20097;-73
2021/05/20 06:42:30;;;;;;;30.20;24.08;;;16.20;99.90;;;16.50;69.35;101972.84;5095895;28;20048;-73
2021/05/20 06:44:58;;;;;;;25.98;23.17;;;16.20;99.90;;;16.63;68.91;101978.91;5095805;28;20048;-73
2021/05/20 06:47:26;;;;;;;26.05;22.85;;;16.30;99.90;;;16.71;69.13;101980.63;5095493;28;20047;-74
2021/05/20 06:49:55;;;;;;;23.40;21.07;;;16.40;99.90;;;16.85;68.40;101975.09;5095675;28;20040;-74
2021/05/20 06:52:24;;;;;;;22.27;19.98;;;16.50;99.90;;;16.86;67.47;101980.41;5095497;28;20067;-73
2021/05/20 06:54:51;;;;;;;23.65;20.05;;;16.60;99.90;;;17.00;67.12;101978.47;5095437;28;20044;-73
2021/05/20 06:57:24;;;;;;;21.73;19.52;;;16.60;99.90;;;16.86;65.43;101969.72;5076988;28;20056;-73
2021/05/20 06:59:57;;;;;;;24.20;21.50;;;16.50;99.90;;;16.78;66.36;101958.25;5095505;28;20040;-73
2021/05/20 07:02:26;;;;;;;22.98;20.58;;;16.50;99.90;;;16.98;66.37;101974.94;5095395;28;20056;-73
2021/05/20 07:04:56;;;;;;;22.50;20.00;;;16.60;99.90;;;16.86;64.40;101977.75;5095411;28;20044;-73
2021/05/20 07:07:25;;;;;;;17.88;16.05;;;16.50;99.90;;;16.77;64.29;101972.53;5077254;28;20109;-73
2021/05/20 07:09:54;;;;;;;18.80;16.30;;;16.40;99.90;;;16.70;63.26;101968.19;5095280;28;20101;-73
2021/05/20 07:12:22;;;;;;;23.70;21.23;;;16.40;99.90;;;16.86;64.24;101967.06;5095369;28;20052;-73
2021/05/20 07:14:51;;;;;;;23.13;19.70;;;16.50;99.90;;;16.79;64.38;101941.31;5094773;28;20046;-73
2021/05/20 07:17:19;;;;;;;20.40;16.70;;;16.60;99.90;;;16.90;61.73;101958.09;5094834;28;20048;-73
2021/05/20 07:19:49;;;;;;;21.67;18.42;;;16.60;99.90;;;17.04;62.43;101957.91;5095039;28;20516;-73
2021/05/20 07:22:17;;;;;;;23.38;20.92;;;16.70;99.90;;;17.12;62.90;101961.38;5094804;28;20044;-73
2021/05/20 07:24:45;;;;;;;27.17;24.23;;;16.80;99.90;;;17.17;63.96;101948.81;5076255;28;20505;-73
2021/05/20 07:27:13;;;;;;;27.48;24.08;;;16.90;99.90;;;17.28;64.49;101952.25;5094531;28;20056;-73
2021/05/20 07:29:41;;;;;;;31.58;25.38;;;16.90;99.90;;;17.30;63.75;101953.09;5094897;28;20032;-73
2021/05/20 07:32:10;;;;;;;32.95;26.02;;;17.00;99.90;;;17.44;64.41;101945.75;5094557;28;20835;-73
2021/05/20 07:34:38;;;;;;;31.48;26.70;;;17.10;99.90;;;17.56;63.93;101944.69;5094695;28;20039;-72
2021/05/20 07:37:07;;;;;;;27.77;24.42;;;17.20;99.90;;;17.61;64.38;101949.09;5094950;28;20044;-72
2021/05/20 07:39:35;;;;;;;27.50;24.52;;;17.20;99.90;;;17.65;64.39;101933.88;5094599;28;20052;-72
2021/05/20 07:42:03;;;;;;;32.20;25.13;;;17.30;99.90;;;17.70;64.07;101937.34;5094413;28;20054;-73
2021/05/20 07:44:34;;;;;;;28.70;24.42;;;17.40;99.90;;;17.67;64.29;101932.91;5094550;28;20048;-73
2021/05/20 07:47:02;;;;;;;26.40;23.60;;;17.40;99.90;;;17.63;63.60;101930.31;5076451;28;20089;-73
2021/05/20 07:49:32;;;;;;;22.75;20.35;;;17.40;99.90;;;17.48;62.16;101910.03;5094754;28;20480;-73
2021/05/20 07:51:59;;;;;;;20.85;18.55;;;17.40;99.90;;;17.38;61.15;101953.00;5094213;28;20119;-74
2021/05/20 07:54:28;;;;;;;19.55;15.95;;;17.20;99.90;;;17.26;60.07;101953.16;5094431;28;20265;-73
2021/05/20 07:56:56;;;;;;;19.50;16.42;;;17.00;99.90;;;17.20;60.31;101953.25;5094411;28;20066;-73
2021/05/20 07:59:24;;;;;;;14.90;13.45;;;16.90;99.90;;;17.07;58.89;101950.72;5094837;28;20052;-73
2021/05/20 08:01:58;;;;;;;16.65;14.30;;;16.90;99.90;;;17.06;59.46;101962.34;5093948;28;20052;-72
2021/05/20 08:04:29;;;;;;;16.95;15.18;;;16.90;99.90;;;17.13;59.83;101945.31;5075869;28;20054;-73
2021/05/20 08:07:26;;;;;;;22.98;20.48;;;16.90;99.90;;;17.26;61.76;101946.03;5094181;28;20126;-73
2021/05/20 08:10:07;;;;;;;23.40;20.45;;;17.00;99.90;;;17.43;61.55;101943.09;5094223;28;20123;-73
2021/05/20 08:12:34;;;;;;;23.47;17.80;;;17.20;99.90;;;17.57;59.65;101938.44;5094108;28;20055;-73
2021/05/20 08:15:04;;;;;;;14.77;12.60;;;17.30;99.90;;;17.63;57.72;101938.34;5075644;28;20856;-73
2021/05/20 08:17:32;;;;;;;14.77;13.10;;;17.40;99.90;;;17.75;57.78;101935.50;5093967;28;20747;-73
2021/05/20 08:20:00;;;;;;;18.67;15.73;;;17.40;99.90;;;17.90;58.63;101928.03;5093695;28;20093;-73
2021/05/20 08:22:28;;;;;;;17.10;15.40;;;17.60;99.90;;;17.96;58.86;101927.09;5093790;28;20047;-73
2021/05/20 08:24:58;;;;;;;16.90;15.18;;;17.60;99.90;;;18.08;59.45;101920.63;5093721;28;20135;-73
2021/05/20 08:27:27;;;;;;;14.10;12.68;;;17.80;99.90;;;18.12;58.41;101920.50;5094056;28;20040;-73
2021/05/20 08:29:55;;;;;;;12.80;10.98;;;17.80;99.90;;;17.83;56.04;101928.19;5075510;28;20048;-73
2021/05/20 08:32:23;;;;;;;14.25;12.75;;;17.70;99.90;;;17.76;57.83;101921.19;5094011;28;20040;-73
2021/05/20 08:34:51;;;;;;;17.70;12.63;;;17.60;99.90;;;17.92;57.59;101922.69;5093026;28;20051;-73
2021/05/20 08:37:19;;;;;;;13.07;11.70;;;17.70;99.90;;;17.95;57.37;101910.13;5075143;28;20101;-73
2021/05/20 08:39:48;;;;;;;10.70;7.78;;;17.70;99.90;;;17.75;53.78;101916.75;5093258;28;20485;-73
2021/05/20 08:42:17;;;;;;;9.68;8.77;;;17.60;99.90;;;17.83;55.00;101925.50;5093568;28;20101;-73
2021/05/20 08:44:46;;;;;;;12.13;9.02;;;17.60;99.90;;;17.87;56.00;101912.06;5093509;28;20106;-73
2021/05/20 08:47:20;;;;;;;9.93;8.93;;;17.70;99.90;;;17.92;54.00;101920.00;5075395;28;20048;-73
2021/05/20 08:49:48;;;;;;;14.27;10.00;;;17.70;99.90;;;17.37;53.91;101804.09;5093370;28;20397;-73
2021/05/20 08:52:16;;;;;;;8.13;7.43;;;17.70;99.90;;;17.93;51.54;101903.91;5093385;28;20043;-73
2021/05/20 08:54:48;;;;;;;11.68;9.90;;;17.70;99.90;;;17.92;52.34;101898.59;5093312;28;20093;-73
2021/05/20 08:57:23;;;;;;;12.18;8.55;;;17.70;99.90;;;18.12;52.43;101903.59;5075002;28;20419;-73
2021/05/20 08:59:52;;;;;;;13.80;12.40;;;17.80;99.90;;;18.32;54.67;101904.06;5093311;28;20059;-73
2021/05/20 09:02:28;;;;;;;16.98;12.55;;;18.00;99.90;;;18.23;54.46;101875.69;5093134;28;20044;-72
2021/05/20 09:05:08;;;;;;;10.80;9.40;;;18.10;99.90;;;18.44;52.35;101903.88;5093049;28;20066;-73
2021/05/20 09:07:38;;;;;;;15.30;11.13;;;18.20;99.90;;;18.45;53.40;101901.16;5075128;28;20052;-73
2021/05/20 09:10:22;;;;;;;13.88;11.68;;;18.20;99.90;;;18.53;53.13;101901.88;5093175;28;20076;-73
2021/05/20 09:12:53;;;;;;;15.27;12.73;;;18.30;99.90;;;18.44;52.44;101882.44;5093205;28;20574;-73
2021/05/20 09:15:28;;;;;;;14.15;12.60;;;18.20;99.90;;;18.52;54.04;101881.38;5093047;28;20388;-73
2021/05/20 09:18:10;;;;;;;9.27;8.30;;;18.30;99.90;;;18.46;50.34;101886.84;5093117;28;20485;-73
2021/05/20 09:20:40;;;;;;;10.32;8.75;;;18.20;99.90;;;18.63;51.48;101878.44;5093099;28;20048;-73
2021/05/20 09:23:10;;;;;;;9.50;8.45;;;18.40;99.90;;;18.80;50.04;101882.53;5093040;28;20051;-73
2021/05/20 09:25:40;;;;;;;11.90;9.82;;;18.50;99.90;;;18.59;51.86;101888.34;5074664;28;20086;-73
2021/05/20 09:28:12;;;;;;;12.70;10.95;;;18.50;99.90;;;18.56;52.60;101872.31;5092929;28;20505;-73
2021/05/20 09:30:42;;;;;;;9.57;6.88;;;18.40;99.90;;;18.67;49.87;101873.00;5092743;28;20041;-72
2021/05/20 09:33:12;;;;;;;8.57;6.32;;;18.50;99.90;;;18.85;49.69;101871.72;5092924;28;20036;-72
2021/05/20 09:35:42;;;;;;;8.27;6.40;;;18.60;99.90;;;18.98;48.45;101869.63;5092491;28;20439;-73
2021/05/20 09:38:13;;;;;;;9.88;7.50;;;18.70;99.90;;;19.11;49.95;101865.72;5092837;28;20158;-73
2021/05/20 09:40:43;;;;;;;;;;;18.80;99.90;;;19.18;49.72;101857.50;5075183;28;20044;-72
2021/05/20 09:43:18;;;;;;;8.67;7.13;;;19.00;99.90;;;18.89;49.95;101868.91;5092569;28;19965;-73
2021/05/20 09:45:50;;;;;;;7.95;7.15;;;18.80;99.90;;;18.97;51.69;101865.19;5092588;28;20147;-74
2021/05/20 09:48:18;;;;;;;7.78;5.82;;;18.70;99.90;;;18.85;49.86;101840.41;5096189;28;20071;-73
2021/05/20 09:50:49;;;;;;;6.63;5.97;;;18.70;99.90;;;18.82;50.57;101855.69;5096805;28;20084;-73
2021/05/20 09:53:21;;;;;;;9.18;5.40;;;18.60;99.90;;;18.85;48.91;101852.94;5096589;28;20397;-73
2021/05/20 09:55:53;;;;;;;6.75;6.05;;;18.60;99.90;;;18.79;51.73;101853.09;5096513;28;20561;-73
2021/05/20 09:58:25;;;;;;;7.82;6.88;;;18.60;99.90;;;18.69;51.34;101838.09;5096362;28;20377;-72
2021/05/20 10:00:54;;;;;;;9.85;7.47;;;18.50;99.90;;;18.66;52.13;101847.09;5096269;28;20052;-72
2021/05/20 10:03:25;;;;;;;6.78;6.07;;;18.50;99.90;;;18.73;51.82;101845.16;5096342;28;20079;-73
2021/05/20 10:05:56;;;;;;;8.50;7.53;;;18.50;99.90;;;18.89;52.14;101839.41;5096478;28;20048;-73
2021/05/20 10:08:28;;;;;;;8.90;8.00;;;18.60;99.90;;;19.02;52.21;101841.81;5096532;28;20048;-73